Time;durP1;ratioP1;P1;durP2;ratioP2;P2;SDS_P1;SDS_P2;PMS_P1;PMS_P2;Temp;Humidity;BMP_temperature;BMP_pressure;BME280_temperature;BME280_humidity;BME280_pressure;Samples;Min_cycle;Max_cycle;Signal;HPM_P1;HPM_P2
2023/05/19 00:01:51;;;;;;;6.47;3.10;;;11.30;90.60;;;;;;5073406;28;20429;-51
2023/05/19 00:04:18;;;;;;;9.57;3.77;;;11.30;90.60;;;;;;5073448;28;20471;-51
2023/05/19 00:06:50;;;;;;;8.47;2.77;;;11.30;90.70;;;;;;5073065;28;20453;-49
2023/05/19 00:09:18;;;;;;;6.97;2.80;;;10.90;90.50;;;;;;5073123;28;20493;-50
2023/05/19 00:11:45;;;;;;;7.90;2.63;;;11.10;90.80;;;;;;5073071;28;20430;-51
2023/05/19 00:14:12;;;;;;;3.90;2.40;;;11.10;91.00;;;;;;5073204;28;20432;-49
2023/05/19 00:16:41;;;;;;;7.20;2.90;;;11.10;91.00;;;;;;5073225;28;20434;-49
2023/05/19 00:19:09;;;;;;;4.20;3.00;;;11.10;91.00;;;;;;5072635;28;20454;-48
2023/05/19 00:21:37;;;;;;;12.10;2.57;;;10.80;90.90;;;;;;5072830;28;20487;-49
2023/05/19 00:24:04;;;;;;;6.50;2.77;;;11.00;91.10;;;;;;5072908;28;20505;-50
2023/05/19 00:26:31;;;;;;;8.60;2.80;;;10.90;91.10;;;;;;5072802;28;20945;-49
2023/05/19 00:29:03;;;;;;;9.20;3.30;;;11.00;91.20;;;;;;5054753;28;20463;-51
2023/05/19 00:31:32;;;;;;;11.23;3.70;;;11.50;91.40;;;;;;5072771;28;20430;-49
2023/05/19 00:33:59;;;;;;;6.87;2.80;;;10.90;91.20;;;;;;5054840;28;20450;-51
2023/05/19 00:36:27;;;;;;;6.90;3.03;;;11.30;91.50;;;;;;5072763;28;20430;-50
2023/05/19 00:38:53;;;;;;;4.70;2.40;;;10.90;91.20;;;;;;5072129;28;20503;-50
2023/05/19 00:41:21;;;;;;;4.63;2.40;;;11.00;91.40;;;;;;5072771;28;20432;-50
2023/05/19 00:43:48;;;;;;;8.90;3.13;;;11.20;91.50;;;;;;5054583;28;20547;-50
2023/05/19 00:46:14;;;;;;;7.87;2.37;;;10.70;91.30;;;;;;5072550;28;20949;-50
2023/05/19 00:48:43;;;;;;;7.70;2.63;;;10.70;91.20;;;;;;5072210;28;20457;-51
2023/05/19 00:51:13;;;;;;;4.90;2.30;;;10.80;91.50;;;;;;5054486;28;20852;-51
2023/05/19 00:53:42;;;;;;;7.43;2.70;;;10.70;91.40;;;;;;5054587;28;20492;-50
2023/05/19 00:56:09;;;;;;;5.70;2.10;;;11.10;91.70;;;;;;5054651;28;20449;-49
2023/05/19 00:58:38;;;;;;;4.97;2.50;;;10.90;91.50;;;;;;5071755;28;20434;-51
2023/05/19 01:01:06;;;;;;;3.63;2.40;;;10.70;91.40;;;;;;5054788;28;20450;-50
2023/05/19 01:03:34;;;;;;;9.03;2.87;;;11.20;91.80;;;;;;5055036;28;20453;-49
2023/05/19 01:06:03;;;;;;;8.40;3.30;;;10.70;91.40;;;;;;5054590;28;20662;-49
2023/05/19 01:08:31;;;;;;;10.03;3.20;;;10.30;91.40;;;;;;5054843;28;20445;-50
2023/05/19 01:10:59;;;;;;;6.70;2.60;;;11.20;91.90;;;;;;5054814;28;20454;-50
2023/05/19 01:13:26;;;;;;;5.63;2.87;;;10.70;91.40;;;;;;5072958;28;20939;-50
2023/05/19 01:16:00;;;;;;;12.83;2.50;;;10.80;91.60;;;;;;5072938;28;20433;-48
2023/05/19 01:18:37;;;;;;;7.17;2.47;;;10.70;91.80;;;;;;5071607;28;20484;-49
2023/05/19 01:21:36;;;;;;;6.73;2.40;;;10.80;91.80;;;;;;5072132;28;20429;-50
2023/05/19 01:24:24;;;;;;;8.40;2.50;;;10.60;91.70;;;;;;5071882;28;20409;-50
2023/05/19 01:27:29;;;;;;;6.17;2.63;;;10.80;91.70;;;;;;5072019;28;20951;-50
2023/05/19 01:30:24;;;;;;;7.47;2.67;;;10.60;91.80;;;;;;5071026;28;20979;-51
2023/05/19 01:32:53;;;;;;;7.97;2.20;;;10.50;91.80;;;;;;5054055;28;20442;-50
2023/05/19 01:35:22;;;;;;;5.80;2.80;;;10.90;92.10;;;;;;5071945;28;20436;-49
2023/05/19 01:37:51;;;;;;;5.37;2.07;;;10.40;92.00;;;;;;5053993;28;20925;-50
2023/05/19 01:40:19;;;;;;;6.03;2.93;;;10.80;92.10;;;;;;5053741;28;20436;-51
2023/05/19 01:42:46;;;;;;;5.87;2.83;;;10.50;92.10;;;;;;5053944;28;20446;-51
2023/05/19 01:45:13;;;;;;;7.90;2.37;;;10.60;92.30;;;;;;5071977;28;20452;-50
2023/05/19 01:47:44;;;;;;;8.40;2.47;;;10.80;92.40;;;;;;5054117;28;20451;-51
2023/05/19 01:50:11;;;;;;;11.30;2.90;;;10.80;92.50;;;;;;5071317;28;20477;-50
2023/05/19 01:52:37;;;;;;;15.73;3.37;;;10.20;92.30;;;;;;5072165;28;20806;-51
2023/05/19 01:55:05;;;;;;;4.93;2.30;;;10.60;92.60;;;;;;5054077;28;20424;-50
2023/05/19 01:57:40;;;;;;;8.50;3.50;;;10.10;92.30;;;;;;5053723;28;20818;-51
2023/05/19 02:00:14;;;;;;;4.63;2.40;;;10.00;92.50;;;;;;5053405;28;20965;-50
2023/05/19 02:02:55;;;;;;;5.13;2.17;;;10.20;92.60;;;;;;5071815;28;20413;-51
2023/05/19 02:05:29;;;;;;;9.13;2.33;;;10.10;92.70;;;;;;5053435;28;20496;-50
2023/05/19 02:08:05;;;;;;;6.33;2.63;;;10.20;92.70;;;;;;5071582;28;20432;-50
2023/05/19 02:10:40;;;;;;;5.23;2.40;;;9.90;93.20;;;;;;5071907;28;20540;-50
2023/05/19 02:13:12;;;;;;;7.60;2.57;;;10.40;92.80;;;;;;5053883;28;20451;-49
2023/05/19 02:15:42;;;;;;;8.50;2.93;;;10.00;92.70;;;;;;5054030;28;20456;-52
2023/05/19 02:18:11;;;;;;;4.70;2.43;;;10.10;92.90;;;;;;5053632;28;20457;-49
2023/05/19 02:20:38;;;;;;;4.50;2.83;;;9.40;93.20;;;;;;5053955;28;20479;-49
2023/05/19 02:23:07;;;;;;;6.33;2.77;;;9.90;93.40;;;;;;5053904;28;21026;-49
2023/05/19 02:25:33;;;;;;;6.93;3.40;;;9.90;93.70;;;;;;5071743;28;20444;-50
2023/05/19 02:28:00;;;;;;;7.67;3.20;;;10.40;93.70;;;;;;5071764;28;20521;-49
2023/05/19 02:30:30;;;;;;;5.67;2.73;;;10.00;93.40;;;;;;5074166;28;20453;-49
2023/05/19 02:32:59;;;;;;;7.20;2.67;;;10.00;93.30;;;;;;5075672;28;20955;-51
2023/05/19 02:35:27;;;;;;;8.80;3.10;;;10.10;93.50;;;;;;5075629;28;20425;-50
2023/05/19 02:37:54;;;;;;;6.77;2.73;;;9.80;94.20;;;;;;5075623;28;20455;-50
2023/05/19 02:40:21;;;;;;;12.10;3.00;;;9.90;94.30;;;;;;5057245;28;20933;-51
2023/05/19 02:42:48;;;;;;;5.40;2.40;;;10.20;93.80;;;;;;5075252;28;20426;-51
2023/05/19 02:45:15;;;;;;;5.50;2.57;;;10.00;93.70;;;;;;5075335;28;20986;-49
2023/05/19 02:47:41;;;;;;;6.30;2.90;;;10.00;93.70;;;;;;5057308;28;20448;-50
2023/05/19 02:50:09;;;;;;;10.30;2.90;;;9.60;94.20;;;;;;5056468;28;20489;-51
2023/05/19 02:52:37;;;;;;;5.00;2.90;;;10.00;93.70;;;;;;5074901;28;20448;-50
2023/05/19 02:55:05;;;;;;;4.07;2.80;;;10.30;93.70;;;;;;5057378;28;20819;-51
2023/05/19 02:57:34;;;;;;;6.60;2.90;;;9.90;94.20;;;;;;5057001;28;20867;-50
2023/05/19 03:00:01;;;;;;;11.50;3.40;;;10.20;93.80;;;;;;5056284;28;20552;-51
2023/05/19 03:02:28;;;;;;;12.40;3.50;;;10.30;93.90;;;;;;5075117;28;20505;-48
2023/05/19 03:04:55;;;;;;;4.07;2.60;;;9.90;94.20;;;;;;5056435;28;20444;-50
2023/05/19 03:07:23;;;;;;;6.70;2.87;;;9.90;94.10;;;;;;5074611;28;20434;-49
2023/05/19 03:09:52;;;;;;;4.57;2.57;;;10.20;93.90;;;;;;5056408;28;20527;-49
2023/05/19 03:12:18;;;;;;;5.77;2.67;;;10.10;93.70;;;;;;5074680;28;20846;-51
2023/05/19 03:14:46;;;;;;;6.77;2.77;;;9.90;94.10;;;;;;5074446;28;20422;-50
2023/05/19 03:17:13;;;;;;;5.40;2.47;;;10.30;93.80;;;;;;5056600;28;20481;-49
2023/05/19 03:19:40;;;;;;;9.63;3.10;;;10.40;93.90;;;;;;5056149;28;20527;-50
2023/05/19 03:22:07;;;;;;;9.10;3.10;;;10.40;93.90;;;;;;5074514;28;20476;-49
2023/05/19 03:24:35;;;;;;;6.57;2.60;;;10.10;93.90;;;;;;5074527;28;20554;-50
2023/05/19 03:27:05;;;;;;;5.67;2.70;;;10.30;94.10;;;;;;5056503;28;20442;-50
2023/05/19 03:29:31;;;;;;;5.10;3.00;;;10.00;93.80;;;;;;5074243;28;20457;-50
2023/05/19 03:31:58;;;;;;;6.93;2.87;;;9.70;94.30;;;;;;5074428;28;20434;-50
2023/05/19 03:34:25;;;;;;;6.07;2.83;;;9.90;94.50;;;;;;5056377;28;20420;-49
2023/05/19 03:36:52;;;;;;;7.67;2.97;;;10.30;94.30;;;;;;5056467;28;20473;-50
2023/05/19 03:39:20;;;;;;;7.30;2.90;;;9.80;94.50;;;;;;5055776;28;20455;-49
2023/05/19 03:41:48;;;;;;;4.00;2.37;;;10.40;94.30;;;;;;5055512;28;20936;-50
2023/05/19 03:44:16;;;;;;;3.83;2.30;;;10.00;93.90;;;;;;5055772;28;20448;-49
2023/05/19 03:46:44;;;;;;;5.77;2.40;;;10.60;94.50;;;;;;5055430;28;20901;-49
2023/05/19 03:49:16;;;;;;;4.63;2.67;;;10.60;94.40;;;;;;5073306;28;20556;-50
2023/05/19 03:52:02;;;;;;;11.23;3.00;;;10.30;94.40;;;;;;5073785;28;20417;-51
2023/05/19 03:54:38;;;;;;;8.50;3.07;;;9.90;94.80;;;;;;5056633;28;20456;-51
2023/05/19 03:57:05;;;;;;;7.70;2.80;;;10.20;94.40;;;;;;5074210;28;20438;-50
2023/05/19 03:59:34;;;;;;;10.87;3.20;;;10.40;94.50;;;;;;5056073;28;20466;-51
2023/05/19 04:02:00;;;;;;;7.53;2.73;;;9.80;94.80;;;;;;5056019;28;21033;-49
2023/05/19 04:04:28;;;;;;;3.87;2.80;;;10.30;94.50;;;;;;5056105;28;20545;-50
2023/05/19 04:06:55;;;;;;;6.13;2.73;;;10.70;94.60;;;;;;5073646;28;20957;-50
2023/05/19 04:09:22;;;;;;;2.93;2.10;;;10.80;94.50;;;;;;5073040;28;20962;-50
2023/05/19 04:11:49;;;;;;;6.77;3.10;;;10.50;94.10;;;;;;5055364;28;20433;-50
2023/05/19 04:14:18;;;;;;;4.70;2.53;;;11.00;94.30;;;;;;5055118;28;20867;-50
2023/05/19 04:16:46;;;;;;;6.53;2.90;;;11.30;94.20;;;;;;5073212;28;20849;-50
2023/05/19 04:19:13;;;;;;;8.63;2.90;;;11.60;94.10;;;;;;5054577;28;20836;-51
2023/05/19 04:21:39;;;;;;;6.00;2.67;;;11.30;93.80;;;;;;5055095;28;20446;-50
2023/05/19 04:24:07;;;;;;;3.57;2.27;;;11.10;93.50;;;;;;5073202;28;20968;-50
2023/05/19 04:26:34;;;;;;;7.77;2.97;;;11.20;93.40;;;;;;5055064;28;20485;-52
2023/05/19 04:29:03;;;;;;;4.50;2.63;;;11.20;93.30;;;;;;5054579;28;20477;-51
2023/05/19 04:31:30;;;;;;;4.90;2.87;;;11.10;93.10;;;;;;5055114;28;20432;-50
2023/05/19 04:34:00;;;;;;;6.63;2.60;;;11.40;93.10;;;;;;5054977;28;20503;-49
2023/05/19 04:36:27;;;;;;;7.53;2.60;;;11.50;93.10;;;;;;5054895;28;20497;-49
2023/05/19 04:39:01;;;;;;;6.83;2.80;;;11.50;93.00;;;;;;5054321;28;21068;-51
2023/05/19 04:41:27;;;;;;;6.47;3.23;;;11.70;93.00;;;;;;5054817;28;20468;-50
2023/05/19 04:43:56;;;;;;;4.80;2.43;;;12.00;93.20;;;;;;5054677;28;20541;-49
2023/05/19 04:46:23;;;;;;;10.03;3.20;;;11.60;93.00;;;;;;5072364;28;20802;-50
2023/05/19 04:48:50;;;;;;;5.33;2.97;;;11.20;92.60;;;;;;5053982;28;20474;-50
2023/05/19 04:51:18;;;;;;;5.13;2.40;;;11.70;92.80;;;;;;5072188;28;20433;-51
2023/05/19 04:53:45;;;;;;;5.30;2.50;;;12.00;92.80;;;;;;5054023;28;20812;-51
2023/05/19 04:56:14;;;;;;;6.97;3.47;;;11.80;92.60;;;;;;5072370;28;20513;-49
2023/05/19 04:58:43;;;;;;;4.97;2.50;;;12.00;92.60;;;;;;5053979;28;20457;-51
2023/05/19 05:01:12;;;;;;;7.43;3.00;;;12.50;92.80;;;;;;5054410;28;20416;-50
2023/05/19 05:03:39;;;;;;;7.57;3.23;;;12.20;92.60;;;;;;5054203;28;20472;-51
2023/05/19 05:06:06;;;;;;;6.40;2.37;;;11.80;92.30;;;;;;5054302;28;20473;-51
2023/05/19 05:08:36;;;;;;;7.93;3.07;;;12.20;92.40;;;;;;5053960;28;20479;-50
2023/05/19 05:11:03;;;;;;;6.43;3.17;;;12.50;92.50;;;;;;5054175;28;20419;-51
2023/05/19 05:13:30;;;;;;;4.77;2.53;;;12.20;92.20;;;;;;5054550;28;20463;-50
2023/05/19 05:15:58;;;;;;;12.60;2.70;;;12.50;92.20;;;;;;5053963;28;20445;-50
2023/05/19 05:18:26;;;;;;;6.43;2.80;;;12.60;92.10;;;;;;5053638;28;20419;-51
2023/05/19 05:20:53;;;;;;;5.30;2.97;;;12.60;92.00;;;;;;5054022;28;20485;-50
2023/05/19 05:23:20;;;;;;;5.50;2.40;;;12.70;91.90;;;;;;5054008;28;20461;-51
2023/05/19 05:25:50;;;;;;;5.00;2.73;;;12.70;91.90;;;;;;5053854;28;20483;-49
2023/05/19 05:28:18;;;;;;;5.50;2.60;;;12.60;91.80;;;;;;5053331;28;20426;-50
2023/05/19 05:30:47;;;;;;;5.13;3.00;;;13.00;92.00;;;;;;5054046;28;20520;-49
2023/05/19 05:33:15;;;;;;;7.20;3.37;;;12.70;91.90;;;;;;5054074;28;20502;-50
2023/05/19 05:35:41;;;;;;;7.57;3.10;;;12.80;91.90;;;;;;5054103;28;20520;-49
2023/05/19 05:38:10;;;;;;;7.70;3.20;;;13.00;92.10;;;;;;5053359;28;20447;-50
2023/05/19 05:40:37;;;;;;;4.33;2.80;;;13.10;92.20;;;;;;5053702;28;20469;-49
2023/05/19 05:43:06;;;;;;;6.40;3.00;;;12.70;92.00;;;;;;5053926;28;20423;-49
2023/05/19 05:45:37;;;;;;;4.37;2.40;;;13.10;92.20;;;;;;5053662;28;20551;-51
2023/05/19 05:48:06;;;;;;;8.40;3.63;;;13.10;92.00;;;;;;5053548;28;20491;-50
2023/05/19 05:50:34;;;;;;;5.67;3.50;;;13.10;91.90;;;;;;5053922;28;20485;-50
2023/05/19 05:53:03;;;;;;;7.77;3.37;;;13.20;91.70;;;;;;5053703;28;20919;-49
2023/05/19 05:55:30;;;;;;;7.13;3.53;;;13.20;91.40;;;;;;5053474;28;20436;-48
2023/05/19 05:58:00;;;;;;;5.37;2.73;;;13.50;91.40;;;;;;5053648;28;20424;-49
2023/05/19 06:00:29;;;;;;;4.40;2.20;;;13.90;91.20;;;;;;5053028;28;20477;-49
2023/05/19 06:02:57;;;;;;;5.13;3.53;;;14.10;91.10;;;;;;5053885;28;20457;-49
2023/05/19 06:05:25;;;;;;;5.63;2.83;;;14.40;91.00;;;;;;5057258;28;20881;-49
2023/05/19 06:07:53;;;;;;;4.57;2.83;;;14.00;90.50;;;;;;5057487;28;21010;-49
2023/05/19 06:10:25;;;;;;;5.50;2.83;;;14.60;90.70;;;;;;5057125;28;20818;-49
2023/05/19 06:12:54;;;;;;;4.80;3.00;;;14.00;90.30;;;;;;5057313;28;20924;-51
2023/05/19 06:15:22;;;;;;;7.50;2.87;;;14.10;90.40;;;;;;5057275;28;20454;-50
2023/05/19 06:18:01;;;;;;;7.07;2.83;;;14.10;90.50;;;;;;5057453;28;20475;-50
2023/05/19 06:20:28;;;;;;;4.63;2.90;;;14.20;90.30;;;;;;5074707;28;20464;-49
2023/05/19 06:22:56;;;;;;;5.87;2.87;;;14.40;90.30;;;;;;5057190;28;20455;-49
2023/05/19 06:25:24;;;;;;;6.57;2.60;;;14.80;90.30;;;;;;5057179;28;20437;-50
2023/05/19 06:27:51;;;;;;;6.00;2.80;;;14.60;90.00;;;;;;5057216;28;20476;-52
2023/05/19 06:30:18;;;;;;;3.97;2.83;;;14.90;89.60;;;;;;5056706;28;20617;-50
2023/05/19 06:33:05;;;;;;;7.77;3.43;;;14.70;89.00;;;;;;5075482;28;20424;-50
2023/05/19 06:35:32;;;;;;;6.33;2.77;;;15.10;89.10;;;;;;5057226;28;20459;-51
2023/05/19 06:37:59;;;;;;;11.13;3.60;;;14.80;89.00;;;;;;5074959;28;20532;-50
2023/05/19 06:40:25;;;;;;;4.80;3.20;;;15.30;89.60;;;;;;5056355;28;20704;-50
2023/05/19 06:42:53;;;;;;;7.17;2.73;;;15.00;89.40;;;;;;5057063;28;20453;-50
2023/05/19 06:45:43;;;;;;;5.13;2.90;;;15.30;89.80;;;;;;5063730;28;20457;-50
2023/05/19 06:48:12;;;;;;;5.60;2.90;;;14.70;89.50;;;;;;5056523;28;20977;-49
2023/05/19 06:50:38;;;;;;;4.70;2.80;;;15.20;90.10;;;;;;5057139;28;20452;-50
2023/05/19 06:53:06;;;;;;;7.83;3.53;;;14.70;89.60;;;;;;5056726;28;20424;-50
2023/05/19 06:55:33;;;;;;;3.97;2.70;;;14.80;89.80;;;;;;5056600;28;20428;-50
2023/05/19 06:58:00;;;;;;;5.77;2.83;;;14.80;90.00;;;;;;5074477;28;20422;-50
2023/05/19 07:00:26;;;;;;;7.40;3.53;;;15.10;90.20;;;;;;5056222;28;20567;-50
2023/05/19 07:02:53;;;;;;;7.40;3.30;;;15.00;90.10;;;;;;5056618;28;20425;-50
2023/05/19 07:05:22;;;;;;;9.30;3.37;;;14.80;89.70;;;;;;5056416;28;20811;-50
2023/05/19 07:07:53;;;;;;;4.37;2.93;;;15.10;90.00;;;;;;5056174;28;20485;-50
2023/05/19 07:10:24;;;;;;;5.83;2.77;;;15.30;90.00;;;;;;5055765;28;20493;-48
2023/05/19 07:12:51;;;;;;;9.87;3.00;;;15.20;90.00;;;;;;5056145;28;20461;-49
2023/05/19 07:15:20;;;;;;;7.60;2.90;;;14.90;89.40;;;;;;5055397;28;20454;-50
2023/05/19 07:17:47;;;;;;;6.13;3.63;;;15.70;90.20;;;;;;5056005;28;20421;-49
2023/05/19 07:20:14;;;;;;;4.33;2.80;;;15.70;90.20;;;;;;5055578;28;20457;-51
2023/05/19 07:22:42;;;;;;;7.07;3.53;;;15.50;90.10;;;;;;5073776;28;20457;-50
2023/05/19 07:25:09;;;;;;;5.93;2.87;;;15.80;90.10;;;;;;5055815;28;20460;-50
2023/05/19 07:27:36;;;;;;;5.13;2.47;;;15.90;90.40;;;;;;5055905;28;20538;-51
2023/05/19 07:30:03;;;;;;;6.13;2.83;;;15.60;89.10;;;;;;5073484;28;20457;-51
2023/05/19 07:32:30;;;;;;;4.27;2.70;;;15.90;88.50;;;;;;5073459;28;20443;-50
2023/05/19 07:34:57;;;;;;;3.90;3.10;;;15.70;88.10;;;;;;5073552;28;20449;-50
2023/05/19 07:37:23;;;;;;;5.87;3.50;;;15.70;88.00;;;;;;5073534;28;20547;-50
2023/05/19 07:39:51;;;;;;;5.23;2.83;;;16.00;88.50;;;;;;5073116;28;20451;-49
2023/05/19 07:42:18;;;;;;;8.17;3.23;;;16.20;88.60;;;;;;5073484;28;20405;-49
2023/05/19 07:44:45;;;;;;;5.47;3.27;;;16.40;88.30;;;;;;5073426;28;20434;-49
2023/05/19 07:47:11;;;;;;;7.70;2.73;;;16.20;87.80;;;;;;5073529;28;20568;-50
2023/05/19 07:49:38;;;;;;;7.37;3.60;;;16.40;87.80;;;;;;5072411;28;20470;-50
2023/05/19 07:52:05;;;;;;;8.20;2.97;;;16.70;87.70;;;;;;5073312;28;20922;-50
2023/05/19 07:54:32;;;;;;;6.73;2.90;;;16.20;85.70;;;;;;5073365;28;20438;-49
2023/05/19 07:57:00;;;;;;;7.60;3.50;;;16.00;84.80;;;;;;5073256;28;20433;-49
2023/05/19 07:59:26;;;;;;;9.03;3.70;;;16.60;85.00;;;;;;5072596;28;21026;-49
2023/05/19 08:01:53;;;;;;;8.10;4.63;;;16.70;84.70;;;;;;5072928;28;20441;-49
2023/05/19 08:04:19;;;;;;;3.93;3.10;;;16.80;84.80;;;;;;5073354;28;20438;-50
2023/05/19 08:06:46;;;;;;;6.50;2.57;;;16.80;84.50;;;;;;5073083;28;20472;-50
2023/05/19 08:09:12;;;;;;;9.27;3.23;;;16.50;83.50;;;;;;5072688;28;20466;-49
2023/05/19 08:11:39;;;;;;;5.60;3.50;;;17.20;83.50;;;;;;5073034;28;20424;-51
2023/05/19 08:14:07;;;;;;;3.90;3.10;;;16.50;82.90;;;;;;5073087;28;20432;-49
2023/05/19 08:16:34;;;;;;;8.40;4.13;;;17.20;83.40;;;;;;5073009;28;20933;-50
2023/05/19 08:19:04;;;;;;;6.63;4.27;;;16.80;83.20;;;;;;5072542;28;20453;-50
2023/05/19 08:21:33;;;;;;;4.33;3.40;;;17.20;83.80;;;;;;5072596;28;20977;-50
2023/05/19 08:24:00;;;;;;;3.87;3.10;;;16.70;83.20;;;;;;5072863;28;20408;-51
2023/05/19 08:26:26;;;;;;;10.50;3.27;;;16.70;83.20;;;;;;5072450;28;20907;-50
2023/05/19 08:28:53;;;;;;;8.40;3.40;;;17.10;83.40;;;;;;5054085;28;20476;-50
2023/05/19 08:31:21;;;;;;;5.43;3.40;;;16.60;83.00;;;;;;5072516;28;20442;-51
2023/05/19 08:33:48;;;;;;;5.27;3.30;;;16.70;83.10;;;;;;5072527;28;20457;-52
2023/05/19 08:36:14;;;;;;;6.00;3.03;;;17.00;83.40;;;;;;5072389;28;20438;-50
2023/05/19 08:38:41;;;;;;;3.53;2.70;;;16.80;83.40;;;;;;5071846;28;20452;-50
2023/05/19 08:41:08;;;;;;;3.73;3.00;;;16.50;82.10;;;;;;5072510;28;20408;-49
2023/05/19 08:43:35;;;;;;;4.50;2.80;;;16.60;82.00;;;;;;5072011;28;20836;-51
2023/05/19 08:46:05;;;;;;;7.23;2.57;;;16.30;80.80;;;;;;5072096;28;20445;-50
2023/05/19 08:48:37;;;;;;;4.17;2.70;;;16.80;80.20;;;;;;5071554;28;20975;-49
2023/05/19 08:51:14;;;;;;;3.77;2.73;;;16.30;79.90;;;;;;5072112;28;20446;-49
2023/05/19 08:53:45;;;;;;;5.90;2.60;;;17.10;81.40;;;;;;5072574;28;20462;-50
2023/05/19 08:56:14;;;;;;;5.77;3.40;;;17.00;80.70;;;;;;5072078;28;21035;-50
2023/05/19 08:58:42;;;;;;;4.30;2.20;;;16.70;80.40;;;;;;5071475;28;20455;-50
2023/05/19 09:01:10;;;;;;;7.07;2.13;;;16.90;79.40;;;;;;5072006;28;20493;-50
2023/05/19 09:03:38;;;;;;;3.53;2.20;;;17.10;78.40;;;;;;5071750;28;20437;-51
2023/05/19 09:06:07;;;;;;;4.30;2.40;;;17.30;78.00;;;;;;5071512;28;20438;-50
2023/05/19 09:08:33;;;;;;;4.80;2.50;;;17.80;77.30;;;;;;5071177;28;20501;-49
2023/05/19 09:11:00;;;;;;;5.47;2.30;;;17.60;76.60;;;;;;5071671;28;20827;-50
2023/05/19 09:13:27;;;;;;;6.27;3.20;;;17.30;76.70;;;;;;5071652;28;20440;-50
2023/05/19 09:15:55;;;;;;;5.10;2.40;;;17.50;75.20;;;;;;5071828;28;20444;-50
2023/05/19 09:18:24;;;;;;;7.07;2.30;;;17.90;74.00;;;;;;5071448;28;20904;-49
2023/05/19 09:20:58;;;;;;;4.27;2.13;;;18.30;73.10;;;;;;5071664;28;20544;-51
2023/05/19 09:23:27;;;;;;;6.63;2.53;;;18.10;72.10;;;;;;5071874;28;20482;-49
2023/05/19 09:25:54;;;;;;;3.40;2.27;;;18.00;71.20;;;;;;5071576;28;20459;-50
2023/05/19 09:28:25;;;;;;;12.43;2.53;;;18.10;71.30;;;;;;5071078;28;20533;-50
2023/05/19 09:30:59;;;;;;;2.67;2.00;;;18.50;71.80;;;;;;5071625;28;20938;-50
2023/05/19 09:33:27;;;;;;;4.63;1.63;;;18.10;69.80;;;;;;5071698;28;20545;-50
2023/05/19 09:35:56;;;;;;;3.93;2.17;;;18.10;70.50;;;;;;5071415;28;20790;-50
2023/05/19 09:38:24;;;;;;;4.73;1.60;;;18.10;71.00;;;;;;5070420;28;20517;-50
2023/05/19 09:40:51;;;;;;;3.57;1.90;;;18.10;70.70;;;;;;5071924;28;20429;-49
2023/05/19 09:43:17;;;;;;;3.63;1.90;;;18.40;70.90;;;;;;5071562;28;20924;-51
2023/05/19 09:45:44;;;;;;;3.37;2.33;;;18.20;68.80;;;;;;5071382;28;20435;-50
2023/05/19 09:48:11;;;;;;;8.67;1.90;;;18.10;69.00;;;;;;5070864;28;20922;-51
2023/05/19 09:50:38;;;;;;;3.33;1.77;;;17.70;68.50;;;;;;5071578;28;20567;-51
2023/05/19 09:53:06;;;;;;;2.73;1.70;;;18.40;68.70;;;;;;5071691;28;20436;-50
2023/05/19 09:55:34;;;;;;;3.90;1.73;;;18.20;67.60;;;;;;5071243;28;20436;-49
2023/05/19 09:58:02;;;;;;;5.37;2.23;;;18.20;68.00;;;;;;5071005;28;20490;-50
2023/05/19 10:00:32;;;;;;;7.13;1.60;;;18.50;68.30;;;;;;5071072;28;20465;-49
2023/05/19 10:03:00;;;;;;;3.80;1.63;;;18.50;67.90;;;;;;5071333;28;20805;-49
2023/05/19 10:05:28;;;;;;;3.17;2.07;;;18.60;68.00;;;;;;5071412;28;20882;-50
2023/05/19 10:07:55;;;;;;;2.70;1.83;;;18.30;66.70;;;;;;5071775;28;20477;-49
2023/05/19 10:10:23;;;;;;;3.73;1.90;;;18.60;67.00;;;;;;5069580;28;20469;-50
2023/05/19 10:12:50;;;;;;;7.43;3.83;;;18.50;66.80;;;;;;5070763;28;20462;-50
2023/05/19 10:15:18;;;;;;;3.37;1.63;;;18.70;66.90;;;;;;5070848;28;20452;-51
2023/05/19 10:17:45;;;;;;;2.10;1.47;;;18.60;66.70;;;;;;5070957;28;20404;-51
2023/05/19 10:20:13;;;;;;;3.90;1.80;;;18.50;66.60;;;;;;5070580;28;20459;-50
2023/05/19 10:22:41;;;;;;;3.90;1.63;;;18.20;66.20;;;;;;5070800;28;20441;-50
2023/05/19 10:25:09;;;;;;;2.93;1.90;;;18.10;65.80;;;;;;5070376;28;20946;-51
2023/05/19 10:27:42;;;;;;;5.50;1.63;;;18.30;65.30;;;;;;5070595;28;20484;-49
2023/05/19 10:30:14;;;;;;;2.53;1.40;;;18.40;65.90;;;;;;5070450;28;20519;-51
2023/05/19 10:32:44;;;;;;;2.20;1.30;;;18.50;66.10;;;;;;5053098;28;20981;-51
2023/05/19 10:35:39;;;;;;;3.87;1.73;;;18.90;65.70;;;;;;5051522;28;20442;-49
2023/05/19 10:38:15;;;;;;;2.87;1.70;;;18.50;63.20;;;;;;5051022;28;20434;-49
2023/05/19 10:40:53;;;;;;;3.83;1.47;;;18.50;62.90;;;;;;5035453;28;20480;-49
2023/05/19 10:43:30;;;;;;;3.00;1.40;;;18.50;62.90;;;;;;5067843;28;20548;-49
2023/05/19 10:45:57;;;;;;;4.23;1.60;;;18.80;63.80;;;;;;5052468;28;20964;-50
2023/05/19 10:48:24;;;;;;;4.10;1.30;;;18.70;63.70;;;;;;5070189;28;20468;-51
2023/05/19 10:50:54;;;;;;;2.60;1.80;;;18.40;63.70;;;;;;5072394;28;20441;-50
2023/05/19 10:53:20;;;;;;;13.60;1.83;;;18.70;63.40;;;;;;5074256;28;20942;-51
2023/05/19 10:55:51;;;;;;;4.93;2.00;;;18.90;63.60;;;;;;5074555;28;20476;-51
2023/05/19 10:58:38;;;;;;;3.90;1.30;;;18.90;63.20;;;;;;5073844;28;20448;-51
2023/05/19 11:01:08;;;;;;;5.20;1.43;;;19.00;63.40;;;;;;5053532;28;20483;-52
2023/05/19 11:03:45;;;;;;;3.70;1.87;;;19.30;63.30;;;;;;5071775;28;20761;-50
2023/05/19 11:06:25;;;;;;;2.60;1.57;;;19.50;63.50;;;;;;5074238;28;20440;-50
2023/05/19 11:08:54;;;;;;;5.30;1.53;;;19.50;62.30;;;;;;5073747;28;21039;-50
2023/05/19 11:11:21;;;;;;;3.67;1.70;;;19.00;62.50;;;;;;5074559;28;20788;-49
2023/05/19 11:13:51;;;;;;;2.33;1.40;;;19.30;62.90;;;;;;5074157;28;20559;-50
2023/05/19 11:16:20;;;;;;;2.17;1.30;;;19.40;62.60;;;;;;5074012;28;20434;-51
2023/05/19 11:18:49;;;;;;;2.67;1.40;;;19.50;62.60;;;;;;5073750;28;20492;-50
2023/05/19 11:21:15;;;;;;;2.43;1.73;;;19.30;63.20;;;;;;5072551;28;20509;-52
2023/05/19 11:23:42;;;;;;;3.70;1.40;;;19.20;61.90;;;;;;5073829;28;20480;-51
2023/05/19 11:26:09;;;;;;;4.43;1.60;;;19.40;62.20;;;;;;5073782;28;20778;-50
2023/05/19 11:28:37;;;;;;;2.57;1.60;;;19.30;61.50;;;;;;5073391;28;20481;-50
2023/05/19 11:31:07;;;;;;;2.20;1.60;;;19.40;60.90;;;;;;5073776;28;20430;-51
2023/05/19 11:33:34;;;;;;;6.93;1.50;;;19.30;61.10;;;;;;5055271;28;20480;-50
2023/05/19 11:36:02;;;;;;;3.77;2.60;;;19.90;60.90;;;;;;5073689;28;20430;-51
2023/05/19 11:38:29;;;;;;;3.53;1.50;;;19.80;60.60;;;;;;5072995;28;20446;-50
2023/05/19 11:40:56;;;;;;;3.27;1.90;;;20.00;60.50;;;;;;5073625;28;20553;-50
2023/05/19 11:43:24;;;;;;;6.50;1.73;;;20.20;60.00;;;;;;5072857;28;20524;-50
2023/05/19 11:45:50;;;;;;;4.13;1.70;;;20.20;59.60;;;;;;5071824;28;20523;-50
2023/05/19 11:48:20;;;;;;;4.70;1.87;;;20.30;59.50;;;;;;5072021;28;20478;-49
2023/05/19 11:50:47;;;;;;;2.53;1.80;;;20.40;59.50;;;;;;5073842;28;20960;-50
2023/05/19 11:53:15;;;;;;;2.33;1.37;;;20.50;58.80;;;;;;5073530;28;20442;-49
2023/05/19 11:55:45;;;;;;;3.60;1.23;;;20.20;57.80;;;;;;5073840;28;20484;-50
2023/05/19 11:58:12;;;;;;;3.53;1.87;;;19.70;57.60;;;;;;5071379;28;20462;-49
2023/05/19 12:00:40;;;;;;;5.10;1.83;;;20.00;58.10;;;;;;5071769;28;20465;-50
2023/05/19 12:03:08;;;;;;;5.43;1.97;;;20.10;57.90;;;;;;5054759;28;20465;-50
2023/05/19 12:05:39;;;;;;;4.43;3.00;;;20.20;58.00;;;;;;5073200;28;20435;-49
2023/05/19 12:08:06;;;;;;;3.50;1.70;;;20.30;57.60;;;;;;5054626;28;20477;-50
2023/05/19 12:10:35;;;;;;;2.37;1.50;;;20.20;57.40;;;;;;5071979;28;20482;-50
2023/05/19 12:13:02;;;;;;;3.27;1.73;;;20.20;57.60;;;;;;5072967;28;20468;-50
2023/05/19 12:15:28;;;;;;;2.30;1.63;;;20.30;57.50;;;;;;5072777;28;20438;-49
2023/05/19 12:17:57;;;;;;;3.20;1.60;;;20.40;57.10;;;;;;5071955;28;20458;-50
2023/05/19 12:20:24;;;;;;;2.60;1.60;;;20.70;56.50;;;;;;5071069;28;20783;-50
2023/05/19 12:22:54;;;;;;;5.17;2.00;;;20.40;56.20;;;;;;5072375;28;20536;-50
2023/05/19 12:25:21;;;;;;;6.13;1.80;;;20.40;56.20;;;;;;5071426;28;20431;-50
2023/05/19 12:27:48;;;;;;;2.47;1.20;;;20.30;56.40;;;;;;5072912;28;20477;-50
2023/05/19 12:30:16;;;;;;;6.10;1.40;;;20.20;56.20;;;;;;5072174;28;20466;-49
2023/05/19 12:32:43;;;;;;;5.23;1.70;;;20.40;56.30;;;;;;5054608;28;20546;-49
2023/05/19 12:35:10;;;;;;;2.00;1.20;;;19.90;56.30;;;;;;5072530;28;20583;-50
2023/05/19 12:37:41;;;;;;;3.37;1.80;;;20.40;56.40;;;;;;5072652;28;20796;-50
2023/05/19 12:40:15;;;;;;;2.13;1.60;;;20.50;56.70;;;;;;5071991;28;20830;-49
2023/05/19 12:42:44;;;;;;;6.60;1.80;;;20.60;56.70;;;;;;5054217;28;20451;-50
2023/05/19 12:45:11;;;;;;;3.30;1.67;;;20.70;56.60;;;;;;5054154;28;20451;-49
2023/05/19 12:47:38;;;;;;;3.13;1.60;;;20.80;56.80;;;;;;5072328;28;20432;-50
2023/05/19 12:50:07;;;;;;;4.80;1.60;;;20.80;56.60;;;;;;5071607;28;20492;-50
2023/05/19 12:52:43;;;;;;;3.87;1.80;;;20.80;56.80;;;;;;5072143;28;20440;-50
2023/05/19 12:55:11;;;;;;;2.43;1.70;;;20.80;57.00;;;;;;5072161;28;20804;-49